createdAt,value
2018-07-14T00:01:38.344Z,76.81
2018-07-14T00:04:07.259Z,76.70
2018-07-14T00:06:36.269Z,77.24
2018-07-14T00:09:06.245Z,75.99
2018-07-14T00:11:35.182Z,76.91
2018-07-14T00:14:04.124Z,76.66
2018-07-14T00:16:33.016Z,76.46
2018-07-14T00:19:01.930Z,76.65
2018-07-14T00:21:30.841Z,77.24
2018-07-14T00:23:59.760Z,76.57
2018-07-14T00:26:28.666Z,76.77
2018-07-14T00:28:57.594Z,77.26
2018-07-14T00:31:26.515Z,78.30
2018-07-14T00:33:55.419Z,76.70
2018-07-14T00:36:24.313Z,77.83
2018-07-14T00:38:53.339Z,78.14
2018-07-14T00:41:22.232Z,78.45
2018-07-14T00:43:51.144Z,77.47
2018-07-14T00:46:20.053Z,76.50
2018-07-14T00:48:48.965Z,76.41
2018-07-14T00:51:17.894Z,76.91
2018-07-14T00:53:46.808Z,76.63
2018-07-14T00:56:15.728Z,77.45
2018-07-14T00:58:44.640Z,77.85
2018-07-14T01:01:13.520Z,77.45
2018-07-14T01:03:42.428Z,78.26
2018-07-14T01:06:11.336Z,78.92
2018-07-14T01:08:40.254Z,80.30
2018-07-14T01:11:09.187Z,80.03
2018-07-14T01:13:38.072Z,81.33
2018-07-14T01:16:06.978Z,80.56
2018-07-14T01:18:35.881Z,81.13
2018-07-14T01:21:04.779Z,81.99
2018-07-14T01:23:33.684Z,81.84
2018-07-14T01:26:02.607Z,82.34
2018-07-14T01:28:31.559Z,82.32
2018-07-14T01:31:00.494Z,83.13
2018-07-14T01:33:29.408Z,82.93
2018-07-14T01:35:58.321Z,83.89
2018-07-14T01:38:27.242Z,84.13
2018-07-14T01:40:56.160Z,84.47
2018-07-14T01:43:25.074Z,84.12
2018-07-14T01:45:54.002Z,84.68
2018-07-14T01:48:22.932Z,84.50
2018-07-14T01:50:51.943Z,84.72
2018-07-14T01:53:20.859Z,84.96
2018-07-14T01:55:49.796Z,84.98
2018-07-14T01:58:18.788Z,84.55
2018-07-14T02:00:47.750Z,85.50
2018-07-14T02:03:16.664Z,86.35
2018-07-14T02:05:45.598Z,86.21
2018-07-14T02:08:14.527Z,85.52
2018-07-14T02:10:43.475Z,86.07
2018-07-14T02:13:12.371Z,85.32
2018-07-14T02:15:41.313Z,86.59
2018-07-14T02:18:10.250Z,85.98
2018-07-14T02:20:39.167Z,86.44
2018-07-14T02:23:08.111Z,87.59
2018-07-14T02:25:37.056Z,87.13
2018-07-14T02:28:06.081Z,87.96
2018-07-14T02:30:35.021Z,87.61
2018-07-14T02:33:04.073Z,87.39
2018-07-14T02:35:33.003Z,87.92
2018-07-14T02:38:01.912Z,88.67
2018-07-14T02:40:30.824Z,87.74
2018-07-14T02:42:59.760Z,88.14
2018-07-14T02:45:28.696Z,88.38
2018-07-14T02:47:57.622Z,88.37
2018-07-14T02:50:26.557Z,88.54
2018-07-14T02:52:55.488Z,87.73
2018-07-14T02:55:24.437Z,88.35
2018-07-14T02:57:53.334Z,88.66
2018-07-14T03:00:22.252Z,88.54
2018-07-14T03:02:51.215Z,88.63
2018-07-14T03:05:20.112Z,89.47
2018-07-14T03:07:49.050Z,89.60
2018-07-14T03:10:17.989Z,90.16
2018-07-14T03:12:46.963Z,90.25
2018-07-14T03:15:15.930Z,89.32
2018-07-14T03:17:44.960Z,89.99
2018-07-14T03:20:13.864Z,89.99
2018-07-14T03:22:42.792Z,90.16
2018-07-14T03:25:11.735Z,90.39
2018-07-14T03:27:40.676Z,90.44
2018-07-14T03:30:09.623Z,90.71
2018-07-14T03:32:38.652Z,90.61
2018-07-14T03:35:07.612Z,90.47
2018-07-14T03:37:36.555Z,91.29
2018-07-14T03:40:05.806Z,90.67
2018-07-14T03:42:34.717Z,90.62
2018-07-14T03:45:03.893Z,89.94
2018-07-14T03:47:32.859Z,90.44
2018-07-14T03:50:01.778Z,90.31
2018-07-14T03:52:30.725Z,90.54
2018-07-14T03:54:59.664Z,89.85
2018-07-14T03:57:28.594Z,91.18
2018-07-14T03:59:57.517Z,91.01
2018-07-14T04:02:26.439Z,90.33
2018-07-14T04:04:55.372Z,90.37
2018-07-14T04:07:24.420Z,90.13
2018-07-14T04:09:53.422Z,89.75
2018-07-14T04:12:22.381Z,90.53
2018-07-14T04:14:51.474Z,89.61
2018-07-14T04:17:20.300Z,89.46
2018-07-14T04:19:49.207Z,89.66
2018-07-14T04:22:18.138Z,88.46
2018-07-14T04:24:47.047Z,87.49
2018-07-14T04:27:16.058Z,88.26
2018-07-14T04:29:44.997Z,87.55
2018-07-14T04:32:13.952Z,86.62
2018-07-14T04:34:42.877Z,86.10
2018-07-14T04:37:11.852Z,86.01
2018-07-14T04:39:40.829Z,85.63
2018-07-14T04:42:09.748Z,84.49
2018-07-14T04:44:38.666Z,85.27
2018-07-14T04:47:07.629Z,84.45
2018-07-14T04:49:36.549Z,84.04
2018-07-14T04:52:05.559Z,83.80
2018-07-14T04:54:34.473Z,83.28
2018-07-14T04:57:08.213Z,83.45
2018-07-14T04:59:37.124Z,82.89
2018-07-14T05:02:06.210Z,83.71
2018-07-14T05:04:35.142Z,83.85
2018-07-14T05:07:04.112Z,83.57
2018-07-14T05:09:33.146Z,82.56
2018-07-14T05:12:02.199Z,82.82
2018-07-14T05:14:31.133Z,81.51
2018-07-14T05:17:00.052Z,81.42
2018-07-14T05:19:28.998Z,81.63
2018-07-14T05:21:58.005Z,81.85
2018-07-14T05:24:26.933Z,80.29
2018-07-14T05:26:55.887Z,80.35
2018-07-14T05:29:24.811Z,80.56
2018-07-14T05:31:53.730Z,79.96
2018-07-14T05:34:22.658Z,80.05
2018-07-14T05:36:51.595Z,80.15
2018-07-14T05:39:20.879Z,79.67
2018-07-14T05:41:49.808Z,78.91
2018-07-14T05:44:18.731Z,78.45
2018-07-14T05:46:47.686Z,78.06
2018-07-14T05:49:16.642Z,78.89
2018-07-14T05:51:45.624Z,77.36
2018-07-14T05:54:14.688Z,77.28
2018-07-14T05:56:43.711Z,77.50
2018-07-14T05:59:12.628Z,75.37
2018-07-14T06:01:41.938Z,76.22
2018-07-14T06:04:11.103Z,75.24
2018-07-14T06:06:40.200Z,74.15
2018-07-14T06:09:09.202Z,72.03
2018-07-14T06:11:38.124Z,71.26
2018-07-14T06:14:07.096Z,68.18
2018-07-14T06:16:36.032Z,67.20
2018-07-14T06:19:05.004Z,65.60
2018-07-14T06:21:33.962Z,63.35
2018-07-14T06:24:02.979Z,61.44
2018-07-14T06:26:31.940Z,62.38
2018-07-14T06:29:00.937Z,60.25
2018-07-14T06:31:29.936Z,59.42
2018-07-14T06:33:59.350Z,58.17
2018-07-14T06:36:28.286Z,58.73
2018-07-14T06:38:57.215Z,58.68
2018-07-14T06:41:26.190Z,57.02
2018-07-14T06:43:55.194Z,57.87
2018-07-14T06:46:24.174Z,54.48
2018-07-14T06:48:53.117Z,54.50
2018-07-14T06:51:22.019Z,57.05
2018-07-14T06:53:50.953Z,56.45
2018-07-14T06:56:19.873Z,59.66
2018-07-14T06:58:49.068Z,58.59
2018-07-14T07:01:18.011Z,58.13
2018-07-14T07:03:47.058Z,56.69
2018-07-14T07:06:16.019Z,55.87
2018-07-14T07:08:44.972Z,52.52
2018-07-14T07:11:14.076Z,56.06
2018-07-14T07:13:43.111Z,56.32
2018-07-14T07:16:11.996Z,57.70
2018-07-14T07:18:40.936Z,56.25
2018-07-14T07:21:09.947Z,55.33
2018-07-14T07:23:38.881Z,54.87
2018-07-14T07:26:07.840Z,52.63
2018-07-14T07:28:36.753Z,52.00
2018-07-14T07:31:05.716Z,53.93
2018-07-14T07:33:34.640Z,49.06
2018-07-14T07:36:03.651Z,49.05
2018-07-14T07:38:32.601Z,51.58
2018-07-14T07:41:01.506Z,48.34
2018-07-14T07:43:30.471Z,45.65
2018-07-14T07:45:59.450Z,45.85
2018-07-14T07:48:28.508Z,48.59
2018-07-14T07:50:57.511Z,50.28
2018-07-14T07:53:26.527Z,46.52
2018-07-14T07:55:55.460Z,48.67
2018-07-14T07:58:24.371Z,47.34
2018-07-14T08:00:53.278Z,50.26
2018-07-14T08:03:22.212Z,46.36
2018-07-14T08:05:51.166Z,47.28
2018-07-14T08:08:20.165Z,49.52
2018-07-14T08:10:49.102Z,48.49
2018-07-14T08:13:18.007Z,50.30
2018-07-14T08:15:46.912Z,51.29
2018-07-14T08:18:15.836Z,49.81
2018-07-14T08:20:44.760Z,49.16
2018-07-14T08:23:13.694Z,48.20
2018-07-14T08:25:42.596Z,50.54
2018-07-14T08:28:11.548Z,48.61
2018-07-14T08:30:40.464Z,45.14
2018-07-14T08:33:09.359Z,44.91
2018-07-14T08:35:38.300Z,43.36
2018-07-14T08:38:07.287Z,46.62
2018-07-14T08:40:36.193Z,46.63
2018-07-14T08:43:05.167Z,46.49
2018-07-14T08:45:34.162Z,45.78
2018-07-14T08:48:03.112Z,47.95
2018-07-14T08:50:32.081Z,51.53
2018-07-14T08:53:00.938Z,53.24
2018-07-14T08:55:29.831Z,53.52
2018-07-14T08:57:58.796Z,50.44
2018-07-14T09:00:27.744Z,47.67
2018-07-14T09:02:56.706Z,50.04
2018-07-14T09:05:25.756Z,54.74
2018-07-14T09:07:54.767Z,48.98
2018-07-14T09:10:23.832Z,46.92
2018-07-14T09:12:52.785Z,48.28
2018-07-14T09:15:21.724Z,47.86
2018-07-14T09:17:50.665Z,46.46
2018-07-14T09:20:19.609Z,47.35
2018-07-14T09:22:48.548Z,49.41
2018-07-14T09:25:17.485Z,46.05
2018-07-14T09:27:46.425Z,45.70
2018-07-14T09:30:15.401Z,47.98
2018-07-14T09:32:44.454Z,50.37
2018-07-14T09:35:13.354Z,51.42
2018-07-14T09:37:42.239Z,53.91
2018-07-14T09:40:11.186Z,53.10
2018-07-14T09:42:40.124Z,48.81
2018-07-14T09:45:09.075Z,49.79
2018-07-14T09:47:38.048Z,48.27
2018-07-14T09:50:06.987Z,44.44
2018-07-14T09:52:35.926Z,43.56
2018-07-14T09:55:05.015Z,46.31
2018-07-14T09:57:34.026Z,46.97
2018-07-14T10:00:03.010Z,45.15
2018-07-14T10:02:31.989Z,43.51
2018-07-14T10:05:00.933Z,41.56
2018-07-14T10:07:29.913Z,40.61
2018-07-14T10:09:58.972Z,41.22
2018-07-14T10:12:27.903Z,39.18
2018-07-14T10:14:56.966Z,42.83
2018-07-14T10:17:25.974Z,38.80
2018-07-14T10:19:54.908Z,40.50
2018-07-14T10:22:23.956Z,41.54
2018-07-14T10:24:52.837Z,41.65
2018-07-14T10:27:21.884Z,39.13
2018-07-14T10:29:51.004Z,37.85
2018-07-14T10:32:19.949Z,36.75
2018-07-14T10:34:48.914Z,38.32
2018-07-14T10:37:17.952Z,42.52
2018-07-14T10:39:46.931Z,48.50
2018-07-14T10:42:15.997Z,45.77
2018-07-14T10:44:44.836Z,44.35
2018-07-14T10:47:13.780Z,43.79
2018-07-14T10:49:42.712Z,40.93
2018-07-14T10:52:11.696Z,39.57
2018-07-14T10:54:40.634Z,45.00
2018-07-14T10:57:09.558Z,44.36
2018-07-14T10:59:39.488Z,49.56
2018-07-14T11:02:08.416Z,42.92
2018-07-14T11:04:37.341Z,39.01
2018-07-14T11:07:06.250Z,44.30
2018-07-14T11:09:35.195Z,42.58
2018-07-14T11:12:04.283Z,40.94
2018-07-14T11:14:33.213Z,42.07
2018-07-14T11:17:02.151Z,38.78
2018-07-14T11:19:31.299Z,37.28
2018-07-14T11:22:00.361Z,37.23
2018-07-14T11:24:31.584Z,37.86
2018-07-14T11:27:00.626Z,36.66
2018-07-14T11:29:29.673Z,36.73
2018-07-14T11:31:58.818Z,34.69
2018-07-14T11:34:41.274Z,37.17
2018-07-14T11:37:27.027Z,37.19
2018-07-14T11:40:01.847Z,35.26
2018-07-14T11:42:42.199Z,35.19
2018-07-14T11:45:27.830Z,35.54
2018-07-14T11:48:15.470Z,35.97
2018-07-14T11:50:55.002Z,34.88
2018-07-14T11:56:39.569Z,36.71
2018-07-14T11:59:43.122Z,33.40
2018-07-14T12:04:06.093Z,31.60
2018-07-14T12:11:33.754Z,30.49
2018-07-14T12:20:22.123Z,34.63
2018-07-14T12:29:55.886Z,37.40
2018-07-14T12:32:44.888Z,37.17
2018-07-14T12:47:43.490Z,34.69
2018-07-14T12:50:51.980Z,34.26
2018-07-14T12:56:53.044Z,33.15
2018-07-14T12:59:37.977Z,33.77
2018-07-14T13:02:25.671Z,35.31
2018-07-14T13:14:37.083Z,34.71
2018-07-14T13:17:06.319Z,36.11
2018-07-14T13:19:35.266Z,37.01
2018-07-14T13:22:04.325Z,36.65
2018-07-14T13:24:33.346Z,35.85
2018-07-14T13:27:02.337Z,37.50
2018-07-14T14:46:28.093Z,33.65
2018-07-14T14:49:15.543Z,35.46
2018-07-14T14:57:55.727Z,33.63
2018-07-14T15:00:27.963Z,33.12
2018-07-14T15:03:17.927Z,34.97
2018-07-14T15:06:09.037Z,33.78
2018-07-14T15:09:30.978Z,35.48
2018-07-14T15:12:20.617Z,34.06
2018-07-14T15:18:01.058Z,34.32
2018-07-14T15:23:30.697Z,34.01
2018-07-14T15:26:09.169Z,34.22
2018-07-14T15:28:48.110Z,33.05
2018-07-14T15:31:27.254Z,33.93
2018-07-14T15:34:07.703Z,33.49
2018-07-14T15:36:54.323Z,34.78
2018-07-14T15:39:30.714Z,33.42
2018-07-14T15:42:06.636Z,34.22
2018-07-14T15:44:48.503Z,34.62
2018-07-14T15:47:24.892Z,33.34
2018-07-14T15:50:02.836Z,34.38
2018-07-14T15:52:40.428Z,34.24
2018-07-14T15:55:11.988Z,34.49
2018-07-14T15:57:46.487Z,33.25
2018-07-14T16:00:16.974Z,34.55
2018-07-14T16:02:50.479Z,34.12
2018-07-14T16:05:22.551Z,34.48
2018-07-14T16:07:55.093Z,36.00
2018-07-14T16:10:24.368Z,36.75
2018-07-14T16:12:54.619Z,37.15
2018-07-14T16:15:24.084Z,37.46
2018-07-14T16:17:53.079Z,36.15
2018-07-14T16:20:22.091Z,35.78
2018-07-14T16:22:51.192Z,36.53
2018-07-14T16:25:20.400Z,36.07
2018-07-14T16:27:49.424Z,35.68
2018-07-14T16:30:18.794Z,35.85
2018-07-14T16:32:48.058Z,37.62
2018-07-14T16:35:17.240Z,37.00
2018-07-14T16:37:46.471Z,38.69
2018-07-14T16:40:15.616Z,37.32
2018-07-14T16:42:44.715Z,38.63
2018-07-14T16:45:13.797Z,37.45
2018-07-14T16:47:42.877Z,37.48
2018-07-14T16:50:12.012Z,38.11
2018-07-14T16:52:41.530Z,37.37
2018-07-14T16:55:10.739Z,36.93
2018-07-14T16:57:39.952Z,37.41
2018-07-14T17:00:08.951Z,36.84
2018-07-14T17:02:38.118Z,37.75
2018-07-14T17:05:07.254Z,37.86
2018-07-14T17:07:36.375Z,38.58
2018-07-14T17:10:05.513Z,38.52
2018-07-14T17:12:34.621Z,38.97
2018-07-14T17:15:03.681Z,38.48
2018-07-14T17:17:32.984Z,40.44
2018-07-14T17:20:02.155Z,39.27
2018-07-14T17:22:31.234Z,38.56
2018-07-14T17:25:00.441Z,39.15
2018-07-14T17:27:29.603Z,38.75
2018-07-14T17:29:58.737Z,39.88
2018-07-14T17:32:27.819Z,38.85
2018-07-14T17:34:57.016Z,39.24
2018-07-14T17:37:26.179Z,39.40
2018-07-14T17:39:55.321Z,39.83
2018-07-14T17:42:24.973Z,39.71
2018-07-14T17:45:11.391Z,40.15
2018-07-14T17:47:41.633Z,39.96
2018-07-14T17:50:10.665Z,40.55
2018-07-14T17:52:39.725Z,40.41
2018-07-14T17:55:08.805Z,41.11
2018-07-14T17:57:38.417Z,40.79
2018-07-14T18:00:07.419Z,41.05
2018-07-14T18:02:36.503Z,41.07
2018-07-14T18:05:05.564Z,41.56
2018-07-14T18:07:35.635Z,41.55
2018-07-14T18:10:04.729Z,42.10
2018-07-14T18:12:33.819Z,41.44
2018-07-14T18:15:02.856Z,42.48
2018-07-14T18:17:31.953Z,42.50
2018-07-14T18:20:01.002Z,42.48
2018-07-14T18:22:30.092Z,43.48
2018-07-14T18:24:59.136Z,43.17
2018-07-14T18:27:28.164Z,43.48
2018-07-14T18:29:57.337Z,44.53
2018-07-14T18:32:26.427Z,44.39
2018-07-14T18:34:55.484Z,44.84
2018-07-14T18:37:24.588Z,45.60
2018-07-14T18:39:53.640Z,45.84
2018-07-14T18:42:22.830Z,46.63
2018-07-14T18:44:51.988Z,46.22
2018-07-14T18:47:21.133Z,48.72
2018-07-14T18:49:50.174Z,47.53
2018-07-14T18:52:19.388Z,49.12
2018-07-14T18:54:48.252Z,50.81
2018-07-14T18:57:17.269Z,52.73
2018-07-14T18:59:46.283Z,50.58
2018-07-14T19:02:15.761Z,52.02
2018-07-14T19:04:44.749Z,52.65
2018-07-14T19:07:13.766Z,54.01
2018-07-14T19:09:42.836Z,54.52
2018-07-14T19:12:11.894Z,54.80
2018-07-14T19:14:41.266Z,55.82
2018-07-14T19:17:11.769Z,55.40
2018-07-14T19:19:41.146Z,55.51
2018-07-14T19:22:12.283Z,55.30
2018-07-14T19:24:42.090Z,56.45
2018-07-14T19:27:15.330Z,56.99
2018-07-14T19:29:45.892Z,56.98
2018-07-14T19:32:16.060Z,57.06
2018-07-14T19:34:55.233Z,57.43
2018-07-14T19:37:29.042Z,58.82
2018-07-14T19:49:35.073Z,58.20
2018-07-14T19:52:05.503Z,58.32
2018-07-14T19:54:35.546Z,58.64
2018-07-14T19:57:28.226Z,59.28
2018-07-14T20:02:39.775Z,59.60
2018-07-14T20:05:14.917Z,59.19
2018-07-14T20:10:37.603Z,59.57
2018-07-14T20:13:19.309Z,59.21
2018-07-14T20:16:03.912Z,60.06
2018-07-14T20:18:44.114Z,58.87
2018-07-14T20:21:21.181Z,60.56
2018-07-14T20:23:51.372Z,60.29
2018-07-14T20:26:24.223Z,59.95
2018-07-14T20:32:53.634Z,60.90
2018-07-14T20:41:44.410Z,60.97
2018-07-14T20:44:16.838Z,61.07
2018-07-14T20:46:47.268Z,61.28
2018-07-14T20:49:17.504Z,61.14
2018-07-14T20:51:49.467Z,61.64
2018-07-14T20:54:22.920Z,61.28
2018-07-14T20:56:52.521Z,61.32
2018-07-14T20:59:21.872Z,61.43
2018-07-14T22:23:50.477Z,66.11
2018-07-14T22:26:19.589Z,67.40
2018-07-14T22:28:48.628Z,67.58
2018-07-14T22:31:17.795Z,66.87
2018-07-14T22:33:46.844Z,68.09
2018-07-14T22:36:16.045Z,69.99
2018-07-14T22:38:45.286Z,68.42
2018-07-14T22:41:14.341Z,70.32
2018-07-14T22:43:43.536Z,71.48
2018-07-14T22:46:12.602Z,71.72
2018-07-14T22:48:41.700Z,71.25
2018-07-14T22:51:10.751Z,71.24
2018-07-14T22:53:39.970Z,71.28
2018-07-14T22:56:09.070Z,73.62
2018-07-14T22:58:38.083Z,72.88
2018-07-14T23:01:07.339Z,73.00
2018-07-14T23:03:36.411Z,74.62
2018-07-14T23:06:05.547Z,74.37
2018-07-14T23:08:34.604Z,73.95
2018-07-14T23:11:03.602Z,74.11
2018-07-14T23:13:33.567Z,74.56
2018-07-14T23:16:03.233Z,75.83
2018-07-14T23:18:32.222Z,75.43
2018-07-14T23:21:01.220Z,75.44
2018-07-14T23:23:33.310Z,75.69
2018-07-14T23:26:18.566Z,76.99
2018-07-14T23:28:49.373Z,77.52
2018-07-14T23:31:48.092Z,77.92
2018-07-14T23:34:57.591Z,78.27
